Time;durP1;ratioP1;P1;durP2;ratioP2;P2;SDS_P1;SDS_P2;PMS_P1;PMS_P2;Temp;Humidity;BMP_temperature;BMP_pressure;BME280_temperature;BME280_humidity;BME280_pressure;Samples;Min_cycle;Max_cycle;Signal;HPM_P1;HPM_P2
2022/09/01 00:01:17;;;;;;;18.20;11.20;;;21.50;99.90;;;;;;5015313;28;20424;-76
2022/09/01 00:03:47;;;;;;;18.10;10.88;;;21.50;99.90;;;;;;5009455;28;20077;-71
2022/09/01 00:06:21;;;;;;;19.02;12.27;;;21.40;99.90;;;;;;5014475;28;20029;-75
2022/09/01 00:08:52;;;;;;;16.77;11.13;;;21.40;99.90;;;;;;5002214;28;20054;-63
2022/09/01 00:11:18;;;;;;;19.17;11.90;;;21.30;99.90;;;;;;5014947;28;20077;-64
2022/09/01 00:13:44;;;;;;;15.50;10.95;;;21.30;99.90;;;;;;5014640;28;20109;-64
2022/09/01 00:16:12;;;;;;;18.95;12.48;;;21.30;99.90;;;;;;5015028;28;20116;-69
2022/09/01 00:18:41;;;;;;;18.38;10.93;;;21.20;99.90;;;;;;5014813;28;20025;-74
2022/09/01 00:21:08;;;;;;;18.27;11.82;;;21.20;99.90;;;;;;5015153;28;20104;-76
2022/09/01 00:23:34;;;;;;;18.65;11.60;;;21.20;99.90;;;;;;5015016;28;20018;-68
2022/09/01 00:26:00;;;;;;;18.90;11.70;;;21.20;99.90;;;;;;5015040;28;20100;-76
2022/09/01 00:28:26;;;;;;;24.05;12.25;;;21.10;99.90;;;;;;5013298;28;20032;-66
2022/09/01 00:30:52;;;;;;;21.50;12.02;;;21.20;99.90;;;;;;5023698;28;20030;-75
2022/09/01 00:33:18;;;;;;;18.30;10.25;;;21.10;99.90;;;;;;5014526;28;20552;-73
2022/09/01 00:35:44;;;;;;;16.75;11.25;;;21.10;99.90;;;;;;5014581;28;20053;-64
2022/09/01 00:38:10;;;;;;;15.73;10.88;;;21.10;99.90;;;;;;5014770;28;20022;-76
2022/09/01 00:40:36;;;;;;;17.17;11.13;;;21.10;99.90;;;;;;5013471;28;20033;-75
2022/09/01 00:43:35;;;;;;;21.40;11.13;;;21.10;99.90;;;;;;5029855;28;20079;-63
2022/09/01 00:46:02;;;;;;;17.10;11.10;;;21.10;99.90;;;;;;5014879;28;20025;-75
2022/09/01 00:48:28;;;;;;;17.58;11.23;;;21.10;99.90;;;;;;5014138;28;20125;-63
2022/09/01 00:50:55;;;;;;;19.02;11.23;;;21.10;99.90;;;;;;5014590;28;20109;-67
2022/09/01 00:53:21;;;;;;;19.08;11.70;;;21.10;99.90;;;;;;5014101;28;20021;-74
2022/09/01 00:55:47;;;;;;;19.88;11.80;;;21.10;99.90;;;;;;5013942;28;20108;-63
2022/09/01 00:58:12;;;;;;;19.20;12.70;;;21.10;99.90;;;;;;5014065;28;20098;-74
2022/09/01 01:00:41;;;;;;;17.98;12.15;;;21.00;99.90;;;;;;5029589;28;20120;-75
2022/09/01 01:03:11;;;;;;;18.90;11.20;;;21.00;99.90;;;;;;5013915;28;20420;-76
2022/09/01 01:05:41;;;;;;;15.40;10.45;;;21.00;99.90;;;;;;5012832;28;20064;-75
2022/09/01 01:08:10;;;;;;;16.08;10.90;;;21.00;99.90;;;;;;5012313;28;20472;-76
2022/09/01 01:10:38;;;;;;;17.55;10.38;;;21.10;99.90;;;;;;5013789;28;20018;-75
2022/09/01 01:13:11;;;;;;;20.15;12.25;;;21.00;99.90;;;;;;5012865;28;20442;-75
2022/09/01 01:15:37;;;;;;;20.08;11.45;;;21.00;99.90;;;;;;5012204;28;20432;-73
2022/09/01 01:18:03;;;;;;;17.20;11.05;;;21.00;99.90;;;;;;5012986;28;20576;-76
2022/09/01 01:23:43;;;;;;;20.50;10.15;;;21.00;99.90;;;;;;5013620;28;20091;-74
2022/09/01 01:26:09;;;;;;;17.08;10.20;;;21.00;99.90;;;;;;4952868;29;20054;-76
2022/09/01 01:28:39;;;;;;;19.55;10.90;;;21.00;99.90;;;;;;4936867;29;20074;-75
2022/09/01 01:31:12;;;;;;;15.38;9.20;;;21.00;99.90;;;;;;4937306;29;20545;-76
2022/09/01 01:33:42;;;;;;;17.02;10.60;;;21.00;99.90;;;;;;4953074;29;20118;-75
2022/09/01 01:36:12;;;;;;;15.57;10.18;;;21.00;99.90;;;;;;4952944;29;20075;-76
2022/09/01 01:38:41;;;;;;;14.80;9.65;;;21.00;99.90;;;;;;4952821;29;20114;-76
2022/09/01 01:41:10;;;;;;;16.52;10.07;;;20.90;99.90;;;;;;4940322;29;20094;-73
2022/09/01 01:43:37;;;;;;;16.23;10.35;;;21.00;99.90;;;;;;4952793;29;20039;-72
2022/09/01 01:46:06;;;;;;;18.50;9.88;;;21.00;99.90;;;;;;4953195;29;20035;-72
2022/09/01 01:48:39;;;;;;;14.00;9.27;;;20.90;99.90;;;;;;4944842;28;20187;-75
2022/09/01 01:51:06;;;;;;;17.27;9.95;;;20.90;99.90;;;;;;4936523;29;20039;-76
2022/09/01 01:53:32;;;;;;;15.90;9.82;;;20.90;99.90;;;;;;4941013;29;20027;-75
2022/09/01 01:55:59;;;;;;;16.95;10.38;;;20.80;99.90;;;;;;4936649;29;20413;-74
2022/09/01 01:58:29;;;;;;;17.45;10.07;;;20.80;99.90;;;;;;4937660;29;20539;-77
2022/09/01 02:00:56;;;;;;;18.58;11.18;;;20.80;99.90;;;;;;4952890;29;20035;-77
2022/09/01 02:03:25;;;;;;;16.90;10.60;;;20.90;99.90;;;;;;4982611;28;20657;-76
2022/09/01 02:05:53;;;;;;;18.60;9.73;;;20.80;99.90;;;;;;5011870;28;20033;-77
2022/09/01 02:08:24;;;;;;;20.10;10.85;;;20.80;99.90;;;;;;5012009;28;20018;-75
2022/09/01 02:10:54;;;;;;;15.93;9.17;;;20.80;99.90;;;;;;5028347;28;20030;-76
2022/09/01 02:13:23;;;;;;;14.30;10.02;;;20.80;99.90;;;;;;5028016;28;20499;-77
2022/09/01 02:15:53;;;;;;;16.52;9.00;;;20.80;99.90;;;;;;5028199;28;20037;-77
2022/09/01 02:18:26;;;;;;;14.65;8.30;;;20.80;99.90;;;;;;5011631;28;20022;-74
2022/09/01 02:20:59;;;;;;;16.35;8.40;;;20.80;99.90;;;;;;5013200;28;20034;-76
2022/09/01 02:23:26;;;;;;;14.05;7.88;;;20.80;99.90;;;;;;5010990;28;20061;-76
2022/09/01 02:25:54;;;;;;;12.93;8.23;;;20.80;99.90;;;;;;5011823;28;20113;-76
2022/09/01 02:28:22;;;;;;;13.90;8.50;;;20.80;99.90;;;;;;5012534;28;20026;-73
2022/09/01 02:30:52;;;;;;;12.10;7.22;;;20.70;99.90;;;;;;5011835;28;20029;-76
2022/09/01 02:33:20;;;;;;;15.68;8.25;;;20.70;99.90;;;;;;5011051;28;20049;-76
2022/09/01 02:35:56;;;;;;;15.80;7.95;;;20.70;99.90;;;;;;5011225;28;20053;-74
2022/09/01 02:38:28;;;;;;;17.50;8.23;;;20.60;99.90;;;;;;5012520;28;20044;-75
2022/09/01 02:40:57;;;;;;;13.55;7.93;;;20.60;99.90;;;;;;5011504;28;20029;-76
2022/09/01 02:43:27;;;;;;;17.52;8.70;;;20.60;99.90;;;;;;5012863;28;20018;-75
2022/09/01 02:45:56;;;;;;;17.42;9.48;;;20.60;99.90;;;;;;5011691;28;20022;-76
2022/09/01 02:48:31;;;;;;;13.70;9.23;;;20.60;99.90;;;;;;5014292;28;20076;-76
2022/09/01 02:51:03;;;;;;;15.45;8.88;;;20.60;99.90;;;;;;5014500;28;20030;-76
2022/09/01 02:53:33;;;;;;;14.17;8.17;;;20.60;99.90;;;;;;5027645;28;20037;-76
2022/09/01 02:56:01;;;;;;;13.00;7.65;;;20.60;99.90;;;;;;5027699;28;20809;-75
2022/09/01 02:58:31;;;;;;;12.40;7.32;;;20.60;99.90;;;;;;5011176;28;20444;-76
2022/09/01 03:00:58;;;;;;;13.35;7.68;;;20.70;99.90;;;;;;5012465;28;20172;-76
2022/09/01 03:03:24;;;;;;;12.40;7.25;;;20.70;99.90;;;;;;5010553;28;20025;-76
2022/09/01 03:05:54;;;;;;;12.80;7.50;;;20.60;99.90;;;;;;5010362;28;20038;-75
2022/09/01 03:08:21;;;;;;;16.75;7.93;;;20.60;99.90;;;;;;5010735;28;20022;-77
2022/09/01 03:10:47;;;;;;;11.27;7.53;;;20.60;99.90;;;;;;5011147;28;20495;-76
2022/09/01 03:13:17;;;;;;;12.23;7.45;;;20.60;99.90;;;;;;5012229;28;20420;-76
2022/09/01 03:15:43;;;;;;;16.23;8.85;;;20.50;99.90;;;;;;5011958;28;20045;-75
2022/09/01 03:18:11;;;;;;;11.82;7.28;;;20.40;99.90;;;;;;5026466;28;20060;-77
2022/09/01 03:20:45;;;;;;;14.45;7.75;;;20.50;99.90;;;;;;5012118;28;20508;-76
2022/09/01 03:23:14;;;;;;;16.70;7.90;;;20.50;99.90;;;;;;5011018;28;20374;-75
2022/09/01 03:25:43;;;;;;;12.48;7.35;;;20.40;99.90;;;;;;5010787;28;20049;-76
2022/09/01 03:28:11;;;;;;;12.88;7.25;;;20.50;99.90;;;;;;5010699;28;20034;-77
2022/09/01 03:30:43;;;;;;;15.25;7.43;;;20.50;99.90;;;;;;5010745;28;20125;-76
2022/09/01 03:33:09;;;;;;;14.52;7.53;;;20.50;99.90;;;;;;5011073;28;20393;-77
2022/09/01 03:35:35;;;;;;;14.15;8.55;;;20.50;99.90;;;;;;5010494;28;20030;-76
2022/09/01 03:38:03;;;;;;;14.10;8.00;;;20.40;99.90;;;;;;5012449;28;20026;-77
2022/09/01 03:40:33;;;;;;;11.82;7.78;;;20.30;99.90;;;;;;5012324;28;20084;-75
2022/09/01 03:43:03;;;;;;;13.73;7.83;;;20.40;99.90;;;;;;5027168;28;20026;-76
2022/09/01 03:45:34;;;;;;;12.70;8.15;;;20.30;99.90;;;;;;5010851;28;20030;-75
2022/09/01 03:48:07;;;;;;;14.50;7.83;;;20.20;99.90;;;;;;5011444;28;20487;-76
2022/09/01 03:50:39;;;;;;;12.20;8.43;;;20.20;99.90;;;;;;5014520;28;20057;-74
2022/09/01 03:53:06;;;;;;;11.45;7.97;;;20.10;99.90;;;;;;5014009;28;20014;-76
2022/09/01 03:55:34;;;;;;;16.90;8.57;;;20.10;99.90;;;;;;5015347;28;20038;-71
2022/09/01 03:58:05;;;;;;;12.52;7.72;;;20.00;99.90;;;;;;5013908;28;20022;-76
2022/09/01 04:00:34;;;;;;;13.88;7.75;;;20.00;99.90;;;;;;5014256;28;20080;-77
2022/09/01 04:03:06;;;;;;;16.85;8.60;;;20.00;99.90;;;;;;5013124;28;20488;-76
2022/09/01 04:05:34;;;;;;;17.97;8.20;;;19.90;99.90;;;;;;5010665;28;20384;-70
2022/09/01 04:08:09;;;;;;;14.43;8.80;;;19.90;99.90;;;;;;5011817;28;20018;-73
2022/09/01 04:10:52;;;;;;;11.70;7.18;;;19.80;99.90;;;;;;4994773;28;20037;-74
2022/09/01 04:13:20;;;;;;;12.90;7.83;;;19.80;99.90;;;;;;4993944;28;20030;-76
2022/09/01 04:15:46;;;;;;;12.82;7.38;;;19.80;99.90;;;;;;5014655;28;20045;-75
2022/09/01 04:18:20;;;;;;;14.55;8.32;;;19.80;99.90;;;;;;5013602;28;20030;-74
2022/09/01 04:20:55;;;;;;;13.43;7.90;;;19.80;99.90;;;;;;5012398;28;20492;-76
2022/09/01 04:23:28;;;;;;;15.68;7.65;;;19.80;99.90;;;;;;5012694;28;20393;-75
2022/09/01 04:26:07;;;;;;;13.88;7.47;;;19.80;99.90;;;;;;5013159;28;20030;-75
2022/09/01 04:28:47;;;;;;;13.98;7.95;;;19.80;99.90;;;;;;5012939;28;20543;-74
2022/09/01 04:31:18;;;;;;;10.82;6.40;;;19.80;99.90;;;;;;5042883;28;20445;-65
2022/09/01 04:33:51;;;;;;;14.13;8.00;;;19.80;99.90;;;;;;5008749;28;20022;-75
2022/09/01 04:36:22;;;;;;;13.88;6.82;;;19.90;99.90;;;;;;4992626;28;20042;-74
2022/09/01 04:38:54;;;;;;;10.48;6.47;;;19.90;99.90;;;;;;5010488;28;20030;-77
2022/09/01 04:41:24;;;;;;;13.15;6.35;;;19.90;99.90;;;;;;5013122;28;20026;-77
2022/09/01 04:43:55;;;;;;;10.77;6.60;;;19.90;99.90;;;;;;5012870;28;20025;-76
2022/09/01 04:46:23;;;;;;;15.80;6.60;;;19.90;99.90;;;;;;5013077;28;20021;-76
2022/09/01 04:48:52;;;;;;;13.07;5.63;;;19.90;99.90;;;;;;5012403;28;20140;-77
2022/09/01 04:51:19;;;;;;;22.15;6.63;;;19.90;99.90;;;;;;5014227;28;20037;-77
2022/09/01 04:53:50;;;;;;;13.90;5.97;;;19.90;99.90;;;;;;5012390;28;20026;-75
2022/09/01 04:56:21;;;;;;;13.00;6.95;;;19.90;99.90;;;;;;5024482;28;20083;-76
2022/09/01 04:59:05;;;;;;;16.80;7.57;;;19.90;99.90;;;;;;5011732;28;20048;-73
2022/09/01 05:01:45;;;;;;;9.13;6.20;;;19.90;99.90;;;;;;5029210;28;20030;-75
2022/09/01 05:04:21;;;;;;;10.30;6.13;;;20.00;99.90;;;;;;5012385;28;20029;-75
2022/09/01 05:06:55;;;;;;;11.45;5.50;;;20.00;99.90;;;;;;5012542;28;20476;-77
2022/09/01 05:09:23;;;;;;;10.85;4.97;;;20.10;99.90;;;;;;5012125;28;20026;-77
2022/09/01 05:12:11;;;;;;;8.70;4.80;;;20.00;99.90;;;;;;5012580;28;20399;-75
2022/09/01 05:14:48;;;;;;;15.35;5.53;;;20.10;99.90;;;;;;5012346;28;20499;-73
2022/09/01 05:17:17;;;;;;;14.38;6.03;;;20.20;99.90;;;;;;5028700;28;20044;-77
2022/09/01 05:19:47;;;;;;;13.90;5.85;;;20.30;99.90;;;;;;5012451;28;20410;-75
2022/09/01 05:22:16;;;;;;;8.30;5.22;;;20.40;99.90;;;;;;5012386;28;20048;-76
2022/09/01 05:24:50;;;;;;;6.57;4.40;;;20.40;99.90;;;;;;5012451;28;20026;-75
2022/09/01 05:27:17;;;;;;;7.15;4.55;;;20.30;99.90;;;;;;5028340;28;20033;-77
2022/09/01 05:29:45;;;;;;;8.20;5.28;;;20.20;99.90;;;;;;5028261;28;20026;-77
2022/09/01 05:32:12;;;;;;;9.70;4.72;;;20.20;99.90;;;;;;5011806;28;20595;-77
2022/09/01 05:34:41;;;;;;;6.95;4.85;;;20.20;99.90;;;;;;5011414;28;20088;-76
2022/09/01 05:37:08;;;;;;;8.82;4.85;;;20.20;99.90;;;;;;5028740;28;20428;-76
2022/09/01 05:39:37;;;;;;;10.35;6.03;;;20.10;99.90;;;;;;5017075;28;20384;-77
2022/09/01 05:42:07;;;;;;;8.95;5.40;;;20.10;99.90;;;;;;5034079;28;20026;-70
2022/09/01 05:44:35;;;;;;;10.93;5.68;;;20.10;99.90;;;;;;5012340;28;20041;-76
2022/09/01 05:47:02;;;;;;;7.93;4.22;;;20.00;99.90;;;;;;5012253;28;20115;-75
2022/09/01 05:49:31;;;;;;;13.30;4.90;;;20.00;99.90;;;;;;5011867;28;20073;-75
2022/09/01 05:51:59;;;;;;;7.85;4.40;;;20.00;99.90;;;;;;5011674;28;20036;-77
2022/09/01 05:54:28;;;;;;;7.85;4.28;;;20.00;99.90;;;;;;5011837;28;20029;-75
2022/09/01 05:57:00;;;;;;;9.00;5.25;;;19.90;99.90;;;;;;5010871;28;20069;-75
2022/09/01 05:59:30;;;;;;;9.57;5.15;;;19.90;99.90;;;;;;5013200;28;20044;-77
2022/09/01 06:02:12;;;;;;;8.38;5.35;;;19.70;99.90;;;;;;5026032;28;20499;-76
2022/09/01 06:04:42;;;;;;;10.70;5.30;;;19.60;99.90;;;;;;5011762;28;20037;-77
2022/09/01 06:07:16;;;;;;;11.40;5.40;;;19.70;99.90;;;;;;5012062;28;20042;-76
2022/09/01 06:09:47;;;;;;;10.25;4.97;;;19.50;99.90;;;;;;5011097;28;20038;-77
2022/09/01 06:12:22;;;;;;;10.37;5.13;;;19.50;99.90;;;;;;5011073;28;20022;-75
2022/09/01 06:14:50;;;;;;;12.98;5.32;;;19.40;99.90;;;;;;5011491;28;20427;-75
2022/09/01 06:17:20;;;;;;;8.02;4.93;;;19.30;99.90;;;;;;5010170;28;20472;-76
2022/09/01 06:19:47;;;;;;;8.45;5.10;;;19.30;99.90;;;;;;5011337;28;20026;-75
2022/09/01 06:22:14;;;;;;;10.60;5.18;;;19.40;99.90;;;;;;5011284;28;20075;-77
2022/09/01 06:24:40;;;;;;;14.32;6.15;;;19.20;99.90;;;;;;5011459;28;20038;-76
2022/09/01 06:27:10;;;;;;;12.52;4.72;;;19.10;99.90;;;;;;5010766;28;20025;-77
2022/09/01 06:29:40;;;;;;;14.88;4.72;;;19.10;99.90;;;;;;5010949;28;20029;-75
2022/09/01 06:32:09;;;;;;;8.75;4.25;;;19.10;99.90;;;;;;5010893;28;20178;-77
2022/09/01 06:34:49;;;;;;;10.70;4.47;;;19.20;99.90;;;;;;5012290;28;20030;-76
2022/09/01 06:37:16;;;;;;;11.07;4.03;;;19.00;99.90;;;;;;5010913;28;20038;-76
2022/09/01 06:39:44;;;;;;;17.15;4.22;;;18.90;99.90;;;;;;5009990;28;20061;-76
2022/09/01 06:42:12;;;;;;;9.50;4.75;;;19.00;99.90;;;;;;5008651;28;20088;-76
2022/09/01 06:44:56;;;;;;;10.18;3.75;;;19.00;99.90;;;;;;5012306;28;20022;-76
2022/09/01 06:47:23;;;;;;;8.27;3.75;;;19.00;99.90;;;;;;5027458;28;20053;-77
2022/09/01 06:49:49;;;;;;;12.13;4.63;;;18.90;99.90;;;;;;5010576;28;20029;-74
2022/09/01 06:52:22;;;;;;;13.70;4.45;;;18.90;99.90;;;;;;5027043;28;20038;-75
2022/09/01 06:54:52;;;;;;;7.57;3.83;;;18.90;99.90;;;;;;5026380;28;20026;-75
2022/09/01 06:57:21;;;;;;;11.30;4.60;;;18.90;99.90;;;;;;5010589;28;20102;-77
2022/09/01 06:59:49;;;;;;;6.65;3.90;;;18.90;99.90;;;;;;5010886;28;20029;-76
2022/09/01 07:02:15;;;;;;;9.57;3.83;;;19.00;99.90;;;;;;5010709;28;20121;-76
2022/09/01 07:05:04;;;;;;;8.77;3.30;;;18.80;99.90;;;;;;5005582;28;20038;-75
2022/09/01 07:07:33;;;;;;;7.28;3.47;;;18.80;99.90;;;;;;5026565;28;20034;-76
2022/09/01 07:10:45;;;;;;;5.00;3.03;;;18.80;99.90;;;;;;5010606;28;20117;-77
2022/09/01 07:13:24;;;;;;;8.57;3.70;;;18.90;99.90;;;;;;5009770;28;20567;-77
2022/09/01 07:15:52;;;;;;;6.47;3.80;;;18.90;99.90;;;;;;5011661;28;20056;-74
2022/09/01 07:18:23;;;;;;;8.13;3.92;;;18.90;99.90;;;;;;5008816;28;20022;-74
2022/09/01 07:20:51;;;;;;;6.43;3.58;;;18.90;99.90;;;;;;5010183;28;20034;-76
2022/09/01 07:23:20;;;;;;;7.78;2.97;;;18.90;99.90;;;;;;5012037;28;20116;-77
2022/09/01 07:25:48;;;;;;;7.10;3.33;;;18.90;99.90;;;;;;5013837;28;20033;-77
2022/09/01 07:28:31;;;;;;;5.30;3.30;;;18.90;99.90;;;;;;5014548;28;20108;-76
2022/09/01 07:30:59;;;;;;;6.45;3.92;;;18.90;99.90;;;;;;5014262;28;20088;-77
2022/09/01 07:33:29;;;;;;;7.45;3.00;;;18.90;99.90;;;;;;5030739;28;20022;-76
2022/09/01 07:35:56;;;;;;;7.45;2.78;;;18.90;99.90;;;;;;5030692;28;20042;-76
2022/09/01 07:38:24;;;;;;;6.40;3.20;;;18.90;99.90;;;;;;5016351;28;20061;-76
2022/09/01 07:40:53;;;;;;;7.68;3.15;;;18.90;99.90;;;;;;5014131;28;20026;-76
2022/09/01 07:43:43;;;;;;;5.38;2.53;;;18.90;99.90;;;;;;5014517;28;20117;-76
2022/09/01 07:46:31;;;;;;;5.65;3.40;;;18.90;99.90;;;;;;5015516;28;20049;-76
2022/09/01 07:49:00;;;;;;;11.55;3.20;;;18.90;99.90;;;;;;5046976;28;20045;-76
2022/09/01 07:51:28;;;;;;;7.30;3.17;;;19.00;99.90;;;;;;5013101;28;20038;-75
2022/09/01 07:53:55;;;;;;;6.90;2.25;;;19.00;99.90;;;;;;5013920;28;20030;-76
2022/09/01 07:56:23;;;;;;;5.20;2.88;;;19.10;99.90;;;;;;5013417;28;20095;-75
2022/09/01 07:58:51;;;;;;;5.57;2.97;;;19.20;99.90;;;;;;5016937;28;20034;-76
2022/09/01 08:01:22;;;;;;;4.43;2.60;;;19.00;99.90;;;;;;5029982;28;20022;-77
2022/09/01 08:03:54;;;;;;;4.85;2.97;;;19.10;99.90;;;;;;5011441;28;20018;-76
2022/09/01 08:06:25;;;;;;;5.40;2.40;;;19.00;99.90;;;;;;5013522;28;20500;-72
2022/09/01 08:08:54;;;;;;;11.10;2.75;;;18.90;99.90;;;;;;5011278;28;20022;-76
2022/09/01 08:11:23;;;;;;;8.57;3.30;;;19.00;99.90;;;;;;5011904;28;20384;-76
2022/09/01 08:13:52;;;;;;;4.45;2.25;;;19.10;99.90;;;;;;5013486;28;20026;-77
2022/09/01 08:16:20;;;;;;;6.30;3.10;;;19.10;99.90;;;;;;5029759;28;20038;-74
2022/09/01 08:18:47;;;;;;;5.00;2.42;;;19.20;99.90;;;;;;5028585;28;20551;-77
2022/09/01 08:21:23;;;;;;;8.40;2.25;;;19.20;99.90;;;;;;5013273;28;20026;-76
2022/09/01 08:23:58;;;;;;;12.73;3.08;;;19.30;99.90;;;;;;5014792;28;20033;-75
2022/09/01 08:26:26;;;;;;;4.75;2.47;;;19.40;99.90;;;;;;5011245;28;20168;-76
2022/09/01 08:28:53;;;;;;;5.65;2.92;;;19.40;99.90;;;;;;5013250;28;20040;-76
2022/09/01 08:31:26;;;;;;;5.68;2.75;;;19.40;99.90;;;;;;5013421;28;20030;-76
2022/09/01 08:33:54;;;;;;;13.52;3.30;;;19.50;99.90;;;;;;5012905;28;20026;-76
2022/09/01 08:36:20;;;;;;;8.35;2.50;;;19.70;99.90;;;;;;5012703;28;20034;-76
2022/09/01 08:38:47;;;;;;;5.35;2.50;;;19.90;99.90;;;;;;5013213;28;20030;-76
2022/09/01 08:41:19;;;;;;;6.55;2.95;;;20.00;99.90;;;;;;5014113;28;20077;-77
2022/09/01 08:43:57;;;;;;;6.45;3.33;;;19.90;99.90;;;;;;5012564;28;20022;-77
2022/09/01 08:46:33;;;;;;;4.72;2.55;;;19.90;99.90;;;;;;5024702;28;20485;-76
2022/09/01 08:49:06;;;;;;;8.63;2.95;;;19.80;99.90;;;;;;5012357;28;20543;-74
2022/09/01 08:52:19;;;;;;;5.35;2.80;;;19.90;99.90;;;;;;5028370;28;20034;-76
2022/09/01 08:54:55;;;;;;;4.78;3.10;;;19.90;99.90;;;;;;5023084;28;20026;-75
2022/09/01 08:57:40;;;;;;;6.57;3.17;;;19.80;99.90;;;;;;5013327;28;20566;-75
2022/09/01 09:00:22;;;;;;;5.78;2.95;;;19.90;99.90;;;;;;5000237;28;20489;-76
2022/09/01 09:03:25;;;;;;;5.25;2.80;;;19.80;99.90;;;;;;5013912;28;20498;-76
2022/09/01 09:06:24;;;;;;;8.32;3.13;;;20.00;99.90;;;;;;5013716;28;20129;-67
2022/09/01 09:09:02;;;;;;;5.93;3.03;;;20.20;99.90;;;;;;5020273;28;20037;-74
2022/09/01 09:11:37;;;;;;;7.60;2.75;;;20.30;99.90;;;;;;5016506;28;20469;-75
2022/09/01 09:14:40;;;;;;;10.80;2.72;;;20.30;99.90;;;;;;5018928;28;20025;-74
2022/09/01 09:17:07;;;;;;;8.23;2.80;;;20.20;99.90;;;;;;5013481;28;20045;-77
2022/09/01 09:19:32;;;;;;;5.03;2.97;;;20.30;99.90;;;;;;5013606;28;20495;-76
2022/09/01 09:22:01;;;;;;;5.93;2.85;;;20.20;99.90;;;;;;5013617;28;20038;-77
2022/09/01 09:24:46;;;;;;;5.63;3.65;;;20.20;99.90;;;;;;5013522;28;20029;-77
2022/09/01 09:27:28;;;;;;;7.85;3.40;;;20.20;99.90;;;;;;5013355;28;20373;-76
2022/09/01 09:30:14;;;;;;;11.10;3.28;;;20.60;99.90;;;;;;5013208;28;20373;-77
2022/09/01 09:33:03;;;;;;;4.97;2.80;;;20.70;99.90;;;;;;5013467;28;20389;-73
2022/09/01 09:35:32;;;;;;;3.75;2.90;;;20.80;99.90;;;;;;5013364;28;20145;-77
2022/09/01 09:38:17;;;;;;;8.00;3.72;;;20.90;99.90;;;;;;5013303;28;20400;-76
2022/09/01 09:41:05;;;;;;;6.90;3.20;;;20.90;99.90;;;;;;5013269;28;20025;-77
2022/09/01 09:43:41;;;;;;;7.68;3.85;;;20.80;99.90;;;;;;5013216;28;20040;-76
2022/09/01 09:46:34;;;;;;;6.82;3.63;;;20.60;99.90;;;;;;5010576;28;20165;-76
2022/09/01 09:49:24;;;;;;;5.00;3.13;;;20.70;99.90;;;;;;5012231;28;20452;-77
2022/09/01 09:52:17;;;;;;;8.57;4.32;;;20.70;99.90;;;;;;4999247;28;20028;-75
2022/09/01 09:55:03;;;;;;;4.32;3.33;;;20.50;99.90;;;;;;4994161;28;20109;-73
2022/09/01 09:57:31;;;;;;;6.88;4.20;;;20.30;99.90;;;;;;5004109;28;20042;-74
2022/09/01 10:00:08;;;;;;;8.77;4.45;;;20.20;99.90;;;;;;4992572;28;20025;-76
2022/09/01 10:02:43;;;;;;;8.10;4.43;;;20.30;99.90;;;;;;4991981;28;20508;-74
2022/09/01 10:05:26;;;;;;;6.85;4.25;;;20.30;99.90;;;;;;4992329;28;20030;-73
2022/09/01 10:07:54;;;;;;;8.55;4.32;;;20.40;99.90;;;;;;5008171;28;20065;-73
2022/09/01 10:10:36;;;;;;;10.25;4.28;;;20.50;99.90;;;;;;4995155;28;20541;-76
2022/09/01 10:13:02;;;;;;;10.10;4.63;;;20.60;99.90;;;;;;4995107;28;20038;-76
2022/09/01 10:15:31;;;;;;;9.15;5.43;;;20.50;99.90;;;;;;4991482;28;20481;-74
2022/09/01 10:18:13;;;;;;;11.40;4.47;;;20.50;99.90;;;;;;5001672;28;20056;-64
2022/09/01 10:20:47;;;;;;;6.72;4.28;;;20.60;99.90;;;;;;5011177;28;20022;-77
2022/09/01 10:23:13;;;;;;;12.40;4.85;;;20.40;99.90;;;;;;5011390;28;20827;-76
2022/09/01 10:25:41;;;;;;;8.98;4.35;;;20.40;99.90;;;;;;5010430;28;20388;-77
2022/09/01 10:28:23;;;;;;;9.88;5.07;;;20.40;99.90;;;;;;5012334;28;20030;-78
2022/09/01 10:30:51;;;;;;;9.50;4.72;;;20.30;99.90;;;;;;5012220;28;20037;-77
2022/09/01 10:33:19;;;;;;;11.63;4.82;;;20.30;99.90;;;;;;5011659;28;20029;-77
2022/09/01 10:35:49;;;;;;;10.13;4.38;;;20.40;99.90;;;;;;5011848;28;20124;-76
2022/09/01 10:38:22;;;;;;;12.35;5.20;;;20.50;99.90;;;;;;5011973;28;20018;-76
2022/09/01 10:41:05;;;;;;;9.05;4.70;;;20.40;99.90;;;;;;5011913;28;20040;-77
2022/09/01 10:43:37;;;;;;;9.00;4.38;;;20.60;99.90;;;;;;5012034;28;20484;-76
2022/09/01 10:46:26;;;;;;;9.32;4.10;;;20.70;99.90;;;;;;5012262;28;20025;-76
2022/09/01 10:48:55;;;;;;;9.27;4.18;;;20.90;99.90;;;;;;4970076;28;20066;-77
2022/09/01 10:51:20;;;;;;;7.45;3.97;;;20.90;99.90;;;;;;4970880;28;20338;-77
2022/09/01 10:53:48;;;;;;;10.98;3.92;;;20.90;99.90;;;;;;4971009;28;20042;-77
2022/09/01 10:56:26;;;;;;;7.32;4.28;;;20.90;99.90;;;;;;4970823;28;20039;-78
2022/09/01 10:59:04;;;;;;;9.48;4.07;;;20.80;99.90;;;;;;4975785;28;20045;-78
2022/09/01 11:01:39;;;;;;;10.68;4.32;;;20.70;99.90;;;;;;4976017;28;20039;-77
2022/09/01 11:04:12;;;;;;;9.27;4.15;;;20.50;99.90;;;;;;4976435;28;20031;-77
2022/09/01 11:06:41;;;;;;;6.65;3.58;;;20.40;99.90;;;;;;4976510;28;20519;-76
2022/09/01 11:09:21;;;;;;;8.43;3.67;;;20.40;99.90;;;;;;4976370;28;20058;-77
2022/09/01 11:12:24;;;;;;;7.63;4.30;;;20.40;99.90;;;;;;4976091;28;20506;-71
2022/09/01 11:14:54;;;;;;;;;;;20.50;99.90;;;;;;4976560;28;20122;-76
2022/09/01 11:17:20;;;;;;;9.65;4.25;;;20.60;99.90;;;;;;4976213;28;19922;-75
2022/09/01 11:19:59;;;;;;;11.70;4.80;;;20.60;99.90;;;;;;4976387;28;20046;-78
2022/09/01 11:23:05;;;;;;;9.80;4.50;;;20.60;99.90;;;;;;4976379;28;20022;-76
2022/09/01 11:25:37;;;;;;;12.52;5.20;;;20.50;99.90;;;;;;4989896;28;20038;-77
2022/09/01 11:28:05;;;;;;;12.93;6.13;;;20.30;99.90;;;;;;5017465;28;20115;-77
2022/09/01 11:30:36;;;;;;;11.88;5.82;;;20.50;99.90;;;;;;5014977;28;20022;-76
2022/09/01 11:33:32;;;;;;;15.00;6.63;;;20.50;99.90;;;;;;5017435;28;20488;-77
2022/09/01 11:36:27;;;;;;;7.95;4.60;;;20.40;99.90;;;;;;5013259;28;20101;-77
2022/09/01 11:39:05;;;;;;;8.45;4.72;;;20.30;99.90;;;;;;5017067;28;20026;-76
2022/09/01 11:41:33;;;;;;;9.00;4.47;;;20.40;99.90;;;;;;5016212;28;20040;-77
2022/09/01 11:44:09;;;;;;;14.38;4.95;;;20.50;99.90;;;;;;5017092;28;20030;-76
2022/09/01 11:46:35;;;;;;;8.48;4.07;;;20.50;99.90;;;;;;5015399;28;20526;-72
2022/09/01 11:49:07;;;;;;;9.80;4.40;;;20.40;99.90;;;;;;5017258;28;20100;-77
2022/09/01 11:51:44;;;;;;;10.52;4.13;;;20.30;99.90;;;;;;5017817;28;20033;-77
2022/09/01 11:54:11;;;;;;;7.15;4.32;;;20.30;99.90;;;;;;5017918;28;20045;-77
2022/09/01 11:56:37;;;;;;;10.30;4.70;;;20.20;99.90;;;;;;5017570;28;20117;-77
2022/09/01 11:59:03;;;;;;;9.60;5.28;;;20.20;99.90;;;;;;5017243;28;20125;-76
2022/09/01 12:01:29;;;;;;;11.45;5.65;;;20.20;99.90;;;;;;5017106;28;20033;-76
2022/09/01 12:03:55;;;;;;;10.45;5.28;;;20.10;99.90;;;;;;5016865;28;20026;-73
2022/09/01 12:06:24;;;;;;;9.23;5.50;;;20.10;99.90;;;;;;5016816;28;20029;-70
2022/09/01 12:08:57;;;;;;;11.73;6.05;;;20.10;99.90;;;;;;5014719;28;20033;-77
2022/09/01 12:11:30;;;;;;;10.85;4.78;;;20.20;99.90;;;;;;5014325;28;20029;-76
2022/09/01 12:13:58;;;;;;;9.30;4.72;;;20.10;99.90;;;;;;5014811;28;20022;-76
2022/09/01 12:16:25;;;;;;;8.13;4.80;;;20.00;99.90;;;;;;5014088;28;20080;-75
2022/09/01 12:18:53;;;;;;;7.43;4.32;;;19.90;99.90;;;;;;5014555;28;20072;-74
2022/09/01 12:21:22;;;;;;;9.57;5.40;;;19.80;99.90;;;;;;5014073;28;20026;-76
2022/09/01 12:23:48;;;;;;;13.50;5.07;;;19.80;99.90;;;;;;5014089;28;20014;-77
2022/09/01 12:26:18;;;;;;;9.23;5.13;;;19.80;99.90;;;;;;5013876;28;20025;-76
2022/09/01 12:28:45;;;;;;;9.05;4.63;;;19.80;99.90;;;;;;5013924;28;20056;-76
2022/09/01 12:31:18;;;;;;;12.23;4.50;;;19.70;99.90;;;;;;5013798;28;20109;-76
2022/09/01 12:33:45;;;;;;;7.10;4.32;;;19.70;99.90;;;;;;5013823;28;20037;-76
2022/09/01 12:36:36;;;;;;;7.57;4.00;;;19.60;99.90;;;;;;5013768;28;20029;-76
2022/09/01 12:39:23;;;;;;;6.68;3.85;;;19.50;99.90;;;;;;5013522;28;20030;-77
2022/09/01 12:42:01;;;;;;;5.05;3.58;;;19.40;99.90;;;;;;5013506;28;20041;-75
2022/09/01 12:44:37;;;;;;;10.20;4.25;;;19.30;99.90;;;;;;5013602;28;20025;-77
2022/09/01 12:47:06;;;;;;;7.30;4.30;;;19.30;99.90;;;;;;5013389;28;20075;-76
2022/09/01 12:49:44;;;;;;;7.38;4.15;;;19.30;99.90;;;;;;5013591;28;20066;-76
2022/09/01 12:52:18;;;;;;;5.63;3.92;;;19.20;99.90;;;;;;5013643;28;20014;-77
2022/09/01 12:54:50;;;;;;;8.50;4.65;;;19.20;99.90;;;;;;5013246;28;20026;-77
2022/09/01 12:57:33;;;;;;;9.70;4.60;;;19.10;99.90;;;;;;5013549;28;20544;-76
2022/09/01 13:00:14;;;;;;;7.90;4.55;;;19.10;99.90;;;;;;5013479;28;20469;-77
2022/09/01 13:02:40;;;;;;;7.38;4.90;;;19.10;99.90;;;;;;5013013;28;20481;-77
2022/09/01 13:05:19;;;;;;;8.02;4.50;;;19.00;99.90;;;;;;5013009;28;20453;-77
2022/09/01 13:07:46;;;;;;;9.73;4.82;;;19.00;99.90;;;;;;5012569;28;20443;-77
2022/09/01 13:10:11;;;;;;;9.15;5.65;;;18.90;99.90;;;;;;5012049;28;20018;-77